createdAt,value
2023-04-26T00:02:00.531Z,100.00
2023-04-26T00:04:29.085Z,100.00
2023-04-26T00:06:56.452Z,100.00
2023-04-26T00:09:23.452Z,100.00
2023-04-26T00:11:50.361Z,100.00
2023-04-26T00:14:17.439Z,100.00
2023-04-26T00:16:44.510Z,100.00
2023-04-26T00:19:11.896Z,100.00
2023-04-26T00:21:39.977Z,100.00
2023-04-26T00:24:07.846Z,100.00
2023-04-26T00:26:35.403Z,100.00
2023-04-26T00:29:04.251Z,100.00
2023-04-26T00:31:31.254Z,100.00
2023-04-26T00:33:58.216Z,100.00
2023-04-26T00:36:25.186Z,100.00
2023-04-26T00:38:53.189Z,100.00
2023-04-26T00:41:20.443Z,100.00
2023-04-26T00:43:47.364Z,100.00
2023-04-26T00:46:14.404Z,100.00
2023-04-26T00:48:41.458Z,100.00
2023-04-26T00:51:08.545Z,100.00
2023-04-26T00:53:35.837Z,100.00
2023-04-26T00:56:03.507Z,100.00
2023-04-26T00:58:30.704Z,100.00
2023-04-26T01:00:58.330Z,100.00
2023-04-26T01:03:26.594Z,100.00
2023-04-26T01:05:54.461Z,100.00
2023-04-26T01:08:22.205Z,100.00
2023-04-26T01:10:50.445Z,100.00
2023-04-26T01:13:17.819Z,100.00
2023-04-26T01:15:48.516Z,100.00
2023-04-26T01:18:15.687Z,100.00
2023-04-26T01:20:43.075Z,100.00
2023-04-26T01:23:11.738Z,100.00
2023-04-26T01:25:39.313Z,100.00
2023-04-26T01:28:06.389Z,100.00
2023-04-26T01:30:33.300Z,100.00
2023-04-26T01:33:03.671Z,100.00
2023-04-26T01:35:30.737Z,100.00
2023-04-26T01:37:57.765Z,100.00
2023-04-26T01:40:24.745Z,100.00
2023-04-26T01:42:51.644Z,100.00
2023-04-26T01:45:18.598Z,100.00
2023-04-26T01:48:18.035Z,100.00
2023-04-26T01:50:45.211Z,100.00
2023-04-26T01:53:13.770Z,100.00
2023-04-26T01:55:41.773Z,100.00
2023-04-26T01:58:09.730Z,100.00
2023-04-26T02:00:37.200Z,100.00
2023-04-26T02:03:04.379Z,100.00
2023-04-26T02:05:31.341Z,100.00
2023-04-26T02:07:58.277Z,100.00
2023-04-26T02:10:25.218Z,100.00
2023-04-26T02:12:52.224Z,100.00
2023-04-26T02:15:20.002Z,100.00
2023-04-26T02:17:46.994Z,100.00
2023-04-26T02:20:14.428Z,100.00
2023-04-26T02:22:41.337Z,100.00
2023-04-26T02:25:08.731Z,100.00
2023-04-26T02:27:35.724Z,100.00
2023-04-26T02:30:03.489Z,100.00
2023-04-26T02:32:31.048Z,100.00
2023-04-26T02:34:58.207Z,100.00
2023-04-26T02:37:26.666Z,100.00
2023-04-26T02:39:53.841Z,100.00
2023-04-26T02:42:21.473Z,100.00
2023-04-26T02:44:48.602Z,100.00
2023-04-26T02:47:15.805Z,100.00
2023-04-26T02:49:42.811Z,100.00
2023-04-26T02:52:09.949Z,100.00
2023-04-26T02:54:37.886Z,100.00
2023-04-26T02:57:05.156Z,100.00
2023-04-26T02:59:32.440Z,100.00
2023-04-26T03:01:59.557Z,100.00
2023-04-26T03:04:26.564Z,100.00
2023-04-26T03:06:54.395Z,100.00
2023-04-26T03:09:22.178Z,100.00
2023-04-26T03:11:50.322Z,100.00
2023-04-26T03:14:17.991Z,100.00
2023-04-26T03:16:45.948Z,100.00
2023-04-26T03:19:12.999Z,100.00
2023-04-26T03:21:40.771Z,100.00
2023-04-26T03:24:07.780Z,100.00
2023-04-26T03:26:34.782Z,100.00
2023-04-26T03:29:02.776Z,100.00
2023-04-26T03:31:29.887Z,100.00
2023-04-26T03:33:56.933Z,100.00
2023-04-26T03:36:23.969Z,100.00
2023-04-26T03:38:51.757Z,100.00
2023-04-26T03:41:19.660Z,100.00
2023-04-26T03:43:46.893Z,100.00
2023-04-26T03:46:13.874Z,100.00
2023-04-26T03:48:40.833Z,100.00
2023-04-26T03:51:07.929Z,100.00
2023-04-26T03:53:35.089Z,100.00
2023-04-26T03:56:02.033Z,100.00
2023-04-26T03:58:30.648Z,100.00
2023-04-26T04:01:00.881Z,100.00
2023-04-26T04:03:30.085Z,100.00
2023-04-26T04:05:57.265Z,100.00
2023-04-26T04:08:24.205Z,100.00
2023-04-26T04:10:51.458Z,100.00
2023-04-26T04:13:18.448Z,100.00
2023-04-26T04:15:45.419Z,100.00
2023-04-26T04:18:12.474Z,100.00
2023-04-26T04:20:41.358Z,100.00
2023-04-26T04:23:08.484Z,100.00
2023-04-26T04:25:36.548Z,100.00
2023-04-26T04:28:08.504Z,100.00
2023-04-26T04:30:35.715Z,100.00
2023-04-26T04:33:03.594Z,100.00
2023-04-26T04:35:33.665Z,100.00
2023-04-26T04:38:03.307Z,100.00
2023-04-26T04:40:30.735Z,100.00
2023-04-26T04:43:00.957Z,100.00
2023-04-26T04:45:28.668Z,100.00
2023-04-26T04:47:57.457Z,100.00
2023-04-26T04:50:26.576Z,100.00
2023-04-26T04:52:53.541Z,100.00
2023-04-26T04:55:20.784Z,100.00
2023-04-26T04:57:48.053Z,100.00
2023-04-26T05:00:16.053Z,100.00
2023-04-26T05:02:48.030Z,100.00
2023-04-26T05:05:16.090Z,100.00
2023-04-26T05:07:43.472Z,100.00
2023-04-26T05:10:11.444Z,100.00
2023-04-26T05:12:38.784Z,100.00
2023-04-26T05:15:07.818Z,100.00
2023-04-26T05:17:34.757Z,100.00
2023-04-26T05:20:11.519Z,100.00
2023-04-26T05:22:39.781Z,100.00
2023-04-26T05:25:08.514Z,100.00
2023-04-26T05:27:36.779Z,100.00
2023-04-26T05:30:22.538Z,100.00
2023-04-26T05:33:00.676Z,100.00
2023-04-26T05:35:36.349Z,100.00
2023-04-26T05:38:03.853Z,100.00
2023-04-26T05:40:32.300Z,100.00
2023-04-26T05:42:59.890Z,100.00
2023-04-26T05:45:27.961Z,100.00
2023-04-26T05:47:54.969Z,100.00
2023-04-26T05:50:21.992Z,100.00
2023-04-26T05:52:48.974Z,100.00
2023-04-26T05:55:16.091Z,100.00
2023-04-26T05:57:43.350Z,100.00
2023-04-26T06:00:11.365Z,100.00
2023-04-26T06:02:41.281Z,100.00
2023-04-26T06:05:13.738Z,100.00
2023-04-26T06:07:41.701Z,100.00
2023-04-26T06:10:09.170Z,100.00
2023-04-26T06:12:38.416Z,100.00
2023-04-26T06:15:06.645Z,100.00
2023-04-26T06:17:34.873Z,100.00
2023-04-26T06:20:02.665Z,100.00
2023-04-26T06:22:29.516Z,100.00
2023-04-26T06:24:56.573Z,100.00
2023-04-26T06:27:23.498Z,100.00
2023-04-26T06:29:51.204Z,100.00
2023-04-26T06:32:18.689Z,100.00
2023-04-26T06:34:45.743Z,100.00
2023-04-26T06:37:12.909Z,100.00
2023-04-26T06:39:42.752Z,100.00
2023-04-26T06:42:11.516Z,100.00
2023-04-26T06:45:01.518Z,100.00
2023-04-26T06:47:28.567Z,100.00
2023-04-26T06:49:56.559Z,100.00
2023-04-26T06:52:23.459Z,100.00
2023-04-26T06:54:57.135Z,100.00
2023-04-26T06:57:24.746Z,100.00
2023-04-26T06:59:51.749Z,100.00
2023-04-26T07:02:18.763Z,100.00
2023-04-26T07:04:45.955Z,100.00
2023-04-26T07:07:14.341Z,100.00
2023-04-26T07:09:41.689Z,100.00
2023-04-26T07:12:11.446Z,100.00
2023-04-26T07:14:41.421Z,100.00
2023-04-26T07:17:08.821Z,99.39
2023-04-26T07:19:36.061Z,100.00
2023-04-26T07:22:03.585Z,98.90
2023-04-26T07:24:30.718Z,97.98
2023-04-26T07:26:57.866Z,98.52
2023-04-26T07:29:24.859Z,96.89
2023-04-26T07:31:51.874Z,99.16
2023-04-26T07:34:19.448Z,98.82
2023-04-26T07:36:46.395Z,97.05
2023-04-26T07:39:15.438Z,97.41
2023-04-26T07:41:43.854Z,97.98
2023-04-26T07:44:11.447Z,98.01
2023-04-26T07:46:38.638Z,96.70
2023-04-26T07:49:05.850Z,96.19
2023-04-26T07:51:33.326Z,95.98
2023-04-26T07:54:00.252Z,94.84
2023-04-26T07:56:27.204Z,95.59
2023-04-26T07:58:54.274Z,95.92
2023-04-26T08:01:21.178Z,95.99
2023-04-26T08:03:49.173Z,96.23
2023-04-26T08:06:16.815Z,94.50
2023-04-26T08:08:50.421Z,95.46
2023-04-26T08:11:18.017Z,97.06
2023-04-26T08:13:45.168Z,96.36
2023-04-26T08:16:12.521Z,93.80
2023-04-26T08:18:39.511Z,94.27
2023-04-26T08:21:06.559Z,92.66
2023-04-26T08:23:38.197Z,93.42
2023-04-26T08:26:06.324Z,92.23
2023-04-26T08:28:33.317Z,91.75
2023-04-26T08:31:00.387Z,92.70
2023-04-26T08:33:27.362Z,92.20
2023-04-26T08:35:54.357Z,91.93
2023-04-26T08:38:22.814Z,93.18
2023-04-26T08:40:51.879Z,92.53
2023-04-26T08:43:18.847Z,91.78
2023-04-26T08:45:47.158Z,88.52
2023-04-26T08:48:16.124Z,87.83
2023-04-26T08:50:47.836Z,88.91
2023-04-26T08:53:19.454Z,88.68
2023-04-26T08:55:49.449Z,86.91
2023-04-26T08:58:18.642Z,86.69
2023-04-26T09:00:46.315Z,83.34
2023-04-26T09:03:13.899Z,81.24
2023-04-26T09:05:45.165Z,81.62
2023-04-26T09:08:19.189Z,79.14
2023-04-26T09:10:46.367Z,76.89
2023-04-26T09:13:14.379Z,76.20
2023-04-26T09:15:41.857Z,77.49
2023-04-26T09:18:23.701Z,77.32
2023-04-26T09:21:09.514Z,78.29
2023-04-26T09:23:36.701Z,77.58
2023-04-26T09:26:17.216Z,77.45
2023-04-26T09:28:44.359Z,79.09
2023-04-26T09:31:11.349Z,77.26
2023-04-26T09:33:59.197Z,79.17
2023-04-26T09:36:26.275Z,79.73
2023-04-26T09:38:53.432Z,81.15
2023-04-26T09:41:20.679Z,80.44
2023-04-26T09:43:51.083Z,80.57
2023-04-26T09:46:26.291Z,80.48
2023-04-26T09:49:03.408Z,79.67
2023-04-26T09:51:30.410Z,78.23
2023-04-26T09:53:57.349Z,79.38
2023-04-26T09:56:24.322Z,77.52
2023-04-26T09:59:00.807Z,74.08
2023-04-26T10:01:29.759Z,75.98
2023-04-26T10:04:04.550Z,73.29
2023-04-26T10:06:32.939Z,75.41
2023-04-26T10:09:01.759Z,76.20
2023-04-26T10:11:29.659Z,73.02
2023-04-26T10:13:56.650Z,73.92
2023-04-26T10:16:24.556Z,75.03
2023-04-26T10:18:52.568Z,72.53
2023-04-26T10:21:35.252Z,73.77
2023-04-26T10:24:02.968Z,71.76
2023-04-26T10:26:56.910Z,70.58
2023-04-26T10:29:25.919Z,68.98
2023-04-26T10:32:09.645Z,69.01
2023-04-26T10:34:37.610Z,67.98
2023-04-26T10:37:08.866Z,67.40
2023-04-26T10:39:39.345Z,68.26
2023-04-26T10:42:28.068Z,69.25
2023-04-26T10:45:19.046Z,70.36
2023-04-26T10:47:47.034Z,72.91
2023-04-26T10:50:13.962Z,71.26
2023-04-26T10:53:03.905Z,69.20
2023-04-26T10:55:41.513Z,69.52
2023-04-26T10:58:35.010Z,67.88
2023-04-26T11:01:21.130Z,65.38
2023-04-26T11:04:13.052Z,57.91
2023-04-26T11:06:57.832Z,59.01
2023-04-26T11:09:41.722Z,59.47
2023-04-26T11:12:13.783Z,59.90
2023-04-26T11:14:46.236Z,60.35
2023-04-26T11:17:13.864Z,58.72
2023-04-26T11:19:47.077Z,59.27
2023-04-26T11:22:14.063Z,60.84
2023-04-26T11:24:41.131Z,58.34
2023-04-26T11:27:12.160Z,53.06
2023-04-26T11:29:39.571Z,53.32
2023-04-26T11:32:07.213Z,54.09
2023-04-26T11:34:35.952Z,54.40
2023-04-26T11:37:04.822Z,55.15
2023-04-26T11:39:36.941Z,55.45
2023-04-26T11:42:12.544Z,56.30
2023-04-26T11:44:41.051Z,56.93
2023-04-26T11:47:09.347Z,59.26
2023-04-26T11:49:37.883Z,59.16
2023-04-26T11:52:06.460Z,60.29
2023-04-26T11:54:36.030Z,61.57
2023-04-26T11:57:17.226Z,62.36
2023-04-26T11:59:45.905Z,59.08
2023-04-26T12:02:13.181Z,58.18
2023-04-26T12:04:41.298Z,56.78
2023-04-26T12:07:08.663Z,57.30
2023-04-26T12:09:36.730Z,56.15
2023-04-26T12:12:06.311Z,57.29
2023-04-26T12:14:37.947Z,58.10
2023-04-26T12:17:07.489Z,57.89
2023-04-26T12:19:39.509Z,57.77
2023-04-26T12:22:08.240Z,59.54
2023-04-26T12:24:38.478Z,60.28
2023-04-26T12:27:07.807Z,61.07
2023-04-26T12:29:35.608Z,61.82
2023-04-26T12:32:04.043Z,60.88
2023-04-26T12:34:31.396Z,63.02
2023-04-26T12:36:58.659Z,62.25
2023-04-26T12:39:25.691Z,60.60
2023-04-26T12:41:52.973Z,58.02
2023-04-26T12:44:22.125Z,58.92
2023-04-26T12:46:50.200Z,58.99
2023-04-26T12:49:17.171Z,58.35
2023-04-26T12:51:44.073Z,57.43
2023-04-26T12:54:11.152Z,58.82
2023-04-26T12:56:43.589Z,57.21
2023-04-26T12:59:10.692Z,58.07
2023-04-26T13:01:37.715Z,58.04
2023-04-26T13:04:05.853Z,57.18
2023-04-26T13:06:33.247Z,56.96
2023-04-26T13:09:00.505Z,57.88
2023-04-26T13:11:27.398Z,56.45
2023-04-26T13:13:54.749Z,57.93
2023-04-26T13:16:21.875Z,56.16
2023-04-26T13:18:48.854Z,55.93
2023-04-26T13:21:15.770Z,55.02
2023-04-26T13:23:42.770Z,55.79
2023-04-26T13:26:09.676Z,55.12
2023-04-26T13:28:37.206Z,56.18
2023-04-26T13:31:04.341Z,56.64
2023-04-26T13:33:31.518Z,57.10
2023-04-26T13:35:58.510Z,58.19
2023-04-26T13:38:26.872Z,57.42
2023-04-26T13:40:54.215Z,57.66
2023-04-26T13:43:21.164Z,59.98
2023-04-26T13:45:48.100Z,58.15
2023-04-26T13:48:15.322Z,58.89
2023-04-26T13:50:42.626Z,61.24
2023-04-26T13:53:09.596Z,62.34
2023-04-26T13:55:36.757Z,63.06
2023-04-26T13:58:03.722Z,65.21
2023-04-26T14:00:31.107Z,64.16
2023-04-26T14:02:58.260Z,66.26
2023-04-26T14:05:25.688Z,66.39
2023-04-26T14:07:54.966Z,66.24
2023-04-26T14:10:22.262Z,66.02
2023-04-26T14:12:49.291Z,67.47
2023-04-26T14:15:16.638Z,66.89
2023-04-26T14:17:43.633Z,68.39
2023-04-26T14:20:11.128Z,70.75
2023-04-26T14:22:38.233Z,71.15
2023-04-26T14:25:05.897Z,72.96
2023-04-26T14:27:33.466Z,73.62
2023-04-26T14:30:00.407Z,74.54
2023-04-26T14:32:27.372Z,74.46
2023-04-26T14:34:54.340Z,76.24
2023-04-26T14:37:22.863Z,76.23
2023-04-26T14:39:50.778Z,75.34
2023-04-26T14:42:17.814Z,76.71
2023-04-26T14:44:46.397Z,74.66
2023-04-26T14:47:13.524Z,76.49
2023-04-26T14:49:41.111Z,75.49
2023-04-26T14:52:07.971Z,75.18
2023-04-26T14:54:39.337Z,72.59
2023-04-26T14:57:06.396Z,74.59
2023-04-26T14:59:33.888Z,71.86
2023-04-26T15:02:01.043Z,73.13
2023-04-26T15:04:28.240Z,71.28
2023-04-26T15:06:56.571Z,72.53
2023-04-26T15:09:23.638Z,72.56
2023-04-26T15:11:50.626Z,73.41
2023-04-26T15:14:17.531Z,72.59
2023-04-26T15:16:45.274Z,70.60
2023-04-26T15:19:12.224Z,70.82
2023-04-26T15:21:39.242Z,70.21
2023-04-26T15:24:07.725Z,71.25
2023-04-26T15:26:35.178Z,70.04
2023-04-26T15:29:02.639Z,71.48
2023-04-26T15:31:29.616Z,69.30
2023-04-26T15:33:56.847Z,68.51
2023-04-26T15:36:23.786Z,67.91
2023-04-26T15:38:50.684Z,67.30
2023-04-26T15:41:17.595Z,67.78
2023-04-26T15:43:44.506Z,67.81
2023-04-26T15:46:14.893Z,66.76
2023-04-26T15:48:42.078Z,66.84
2023-04-26T15:51:08.988Z,67.14
2023-04-26T15:53:39.227Z,68.55
2023-04-26T15:56:19.618Z,69.06
2023-04-26T15:58:47.239Z,70.48
2023-04-26T16:01:15.047Z,71.11
2023-04-26T16:03:45.594Z,71.46
2023-04-26T16:06:14.459Z,72.02
2023-04-26T16:08:41.498Z,71.41
2023-04-26T16:11:08.513Z,70.41
2023-04-26T16:13:35.562Z,71.41
2023-04-26T16:16:06.754Z,70.89
2023-04-26T16:18:34.526Z,71.21
2023-04-26T16:21:06.489Z,72.56
2023-04-26T16:23:33.491Z,72.38
2023-04-26T16:26:00.423Z,71.34
2023-04-26T16:28:27.736Z,72.70
2023-04-26T16:30:55.062Z,72.53
2023-04-26T16:33:23.255Z,72.02
2023-04-26T16:35:55.147Z,72.24
2023-04-26T16:38:22.976Z,71.78
2023-04-26T16:41:01.528Z,72.49
2023-04-26T16:43:30.283Z,72.99
2023-04-26T16:46:02.671Z,73.26
2023-04-26T16:48:34.752Z,72.99
2023-04-26T16:51:07.613Z,73.31
2023-04-26T16:53:36.007Z,73.87
2023-04-26T16:56:03.292Z,74.45
2023-04-26T16:58:30.365Z,72.83
2023-04-26T17:00:58.120Z,73.03
2023-04-26T17:03:25.362Z,72.34
2023-04-26T17:05:52.797Z,75.08
2023-04-26T17:08:20.074Z,71.61
2023-04-26T17:10:47.530Z,76.07
2023-04-26T17:13:14.474Z,76.86
2023-04-26T17:15:42.651Z,74.09
2023-04-26T17:18:10.095Z,71.94
2023-04-26T17:20:37.331Z,72.19
2023-04-26T17:23:04.599Z,71.84
2023-04-26T17:25:31.731Z,72.44
2023-04-26T17:27:59.223Z,73.49
2023-04-26T17:30:26.298Z,74.14
2023-04-26T17:32:53.452Z,72.00
2023-04-26T17:35:20.581Z,72.28
2023-04-26T17:37:49.965Z,71.84
2023-04-26T17:40:18.118Z,70.70
2023-04-26T17:42:46.314Z,71.75
2023-04-26T17:45:14.448Z,71.67
2023-04-26T17:47:42.921Z,71.83
2023-04-26T17:50:10.779Z,69.60
2023-04-26T17:52:38.270Z,68.38
2023-04-26T17:55:08.129Z,68.52
2023-04-26T17:57:35.564Z,70.86
2023-04-26T18:00:03.764Z,71.30
2023-04-26T18:02:36.277Z,69.01
2023-04-26T18:05:05.086Z,69.12
2023-04-26T18:07:32.064Z,69.69
2023-04-26T18:09:58.980Z,71.29
2023-04-26T18:12:26.034Z,71.93
2023-04-26T18:14:53.007Z,71.38
2023-04-26T18:17:20.004Z,71.80
2023-04-26T18:19:47.115Z,70.83
2023-04-26T18:22:14.028Z,72.21
2023-04-26T18:24:40.969Z,73.31
2023-04-26T18:27:07.904Z,71.91
2023-04-26T18:29:35.041Z,72.58
2023-04-26T18:32:01.984Z,73.15
2023-04-26T18:34:28.901Z,73.77
2023-04-26T18:36:55.880Z,74.88
2023-04-26T18:39:22.833Z,76.84
2023-04-26T18:41:52.039Z,76.89
2023-04-26T18:44:19.281Z,76.63
2023-04-26T18:46:46.679Z,76.79
2023-04-26T18:49:13.740Z,79.42
2023-04-26T18:51:40.659Z,76.80
2023-04-26T18:54:07.733Z,78.33
2023-04-26T18:56:34.600Z,76.81
2023-04-26T18:59:01.799Z,78.53
2023-04-26T19:01:28.930Z,78.75
2023-04-26T19:03:56.951Z,77.99
2023-04-26T19:06:23.967Z,76.82
2023-04-26T19:08:51.602Z,75.85
2023-04-26T19:11:18.583Z,75.08
2023-04-26T19:13:45.497Z,72.60
2023-04-26T19:16:12.563Z,71.51
2023-04-26T19:18:44.197Z,72.46
2023-04-26T19:21:11.945Z,73.22
2023-04-26T19:23:38.913Z,74.58
2023-04-26T19:26:08.435Z,75.85
2023-04-26T19:28:37.468Z,76.22
2023-04-26T19:31:04.460Z,76.59
2023-04-26T19:33:32.446Z,78.40
2023-04-26T19:35:59.468Z,81.09
2023-04-26T19:38:26.449Z,83.82
2023-04-26T19:40:53.429Z,83.64
2023-04-26T19:43:20.906Z,77.52
2023-04-26T19:45:48.077Z,77.75
2023-04-26T19:48:15.108Z,76.68
2023-04-26T19:50:44.947Z,76.84
2023-04-26T19:53:14.389Z,78.53
2023-04-26T19:55:42.407Z,77.10
2023-04-26T19:58:12.467Z,78.75
2023-04-26T20:00:40.267Z,79.99
2023-04-26T20:03:07.398Z,79.34
2023-04-26T20:05:34.868Z,77.67
2023-04-26T20:08:02.507Z,76.25
2023-04-26T20:10:34.183Z,72.90
2023-04-26T20:13:02.665Z,71.88
2023-04-26T20:15:32.247Z,71.04
2023-04-26T20:18:02.294Z,70.53
2023-04-26T20:20:29.373Z,70.09
2023-04-26T20:22:56.327Z,70.03
2023-04-26T20:25:23.449Z,69.43
2023-04-26T20:27:50.428Z,66.51
2023-04-26T20:30:17.369Z,66.24
2023-04-26T20:32:44.430Z,66.24
2023-04-26T20:35:13.557Z,68.25
2023-04-26T20:37:40.617Z,72.25
2023-04-26T20:40:08.455Z,71.72
2023-04-26T20:42:35.459Z,71.23
2023-04-26T20:45:03.787Z,71.43
2023-04-26T20:47:31.229Z,72.19
2023-04-26T20:49:58.165Z,72.22
2023-04-26T20:52:25.166Z,72.99
2023-04-26T20:54:52.101Z,73.75
2023-04-26T20:57:19.348Z,74.99
2023-04-26T20:59:46.281Z,74.40
2023-04-26T21:02:13.475Z,75.58
2023-04-26T21:04:42.235Z,74.69
2023-04-26T21:07:10.436Z,75.63
2023-04-26T21:09:37.580Z,75.72
2023-04-26T21:12:05.500Z,76.30
2023-04-26T21:14:32.470Z,75.76
2023-04-26T21:17:01.072Z,77.86
2023-04-26T21:19:29.029Z,77.20
2023-04-26T21:21:56.655Z,77.25
2023-04-26T21:24:23.581Z,80.60
2023-04-26T21:26:50.534Z,78.79
2023-04-26T21:29:17.422Z,77.33
2023-04-26T21:31:44.484Z,77.57
2023-04-26T21:34:11.547Z,76.69
2023-04-26T21:36:38.481Z,77.83
2023-04-26T21:39:05.629Z,79.50
2023-04-26T21:41:32.548Z,81.76
2023-04-26T21:43:59.619Z,80.15
2023-04-26T21:46:26.820Z,78.98
2023-04-26T21:48:54.136Z,79.53
2023-04-26T21:51:21.106Z,81.42
2023-04-26T21:53:48.061Z,83.85
2023-04-26T21:56:15.094Z,82.30
2023-04-26T21:58:42.384Z,81.42
2023-04-26T22:01:15.051Z,82.26
2023-04-26T22:03:42.299Z,81.77
2023-04-26T22:06:09.812Z,84.50
2023-04-26T22:08:37.003Z,86.74
2023-04-26T22:11:04.092Z,85.80
2023-04-26T22:13:32.238Z,83.07
2023-04-26T22:15:59.212Z,83.95
2023-04-26T22:18:27.026Z,86.42
2023-04-26T22:20:54.108Z,84.60
2023-04-26T22:23:21.181Z,85.09
2023-04-26T22:25:48.058Z,86.32
2023-04-26T22:28:16.309Z,88.29
2023-04-26T22:30:43.252Z,84.15
2023-04-26T22:33:12.055Z,85.97
2023-04-26T22:35:39.137Z,86.26
2023-04-26T22:38:06.195Z,82.93
2023-04-26T22:40:33.188Z,81.79
2023-04-26T22:43:00.187Z,79.95
2023-04-26T22:45:27.230Z,79.81
2023-04-26T22:47:54.303Z,80.57
2023-04-26T22:50:21.879Z,78.57
2023-04-26T22:52:49.699Z,76.59
2023-04-26T22:55:17.316Z,77.99
2023-04-26T22:57:45.012Z,79.63
2023-04-26T23:00:14.101Z,76.66
2023-04-26T23:02:41.112Z,77.99
2023-04-26T23:05:11.648Z,80.66
2023-04-26T23:07:39.808Z,82.94
2023-04-26T23:10:07.609Z,80.93
2023-04-26T23:12:36.010Z,80.63
2023-04-26T23:15:05.003Z,80.26
2023-04-26T23:17:34.018Z,80.16
2023-04-26T23:20:01.365Z,81.48
2023-04-26T23:22:28.276Z,81.38
2023-04-26T23:24:55.520Z,78.76
2023-04-26T23:27:24.314Z,79.46
2023-04-26T23:29:51.714Z,80.22
2023-04-26T23:32:18.638Z,77.77
2023-04-26T23:34:45.622Z,78.41
2023-04-26T23:37:12.534Z,78.46
2023-04-26T23:39:39.457Z,78.94
2023-04-26T23:42:06.596Z,78.23
2023-04-26T23:44:33.519Z,78.42
2023-04-26T23:47:00.507Z,77.36
2023-04-26T23:49:27.757Z,77.28
2023-04-26T23:51:54.808Z,75.44
2023-04-26T23:54:21.722Z,75.76
2023-04-26T23:56:48.710Z,76.61
2023-04-26T23:59:16.783Z,77.84
